Time;durP1;ratioP1;P1;durP2;ratioP2;P2;SDS_P1;SDS_P2;PMS_P1;PMS_P2;Temp;Humidity;BMP_temperature;BMP_pressure;BME280_temperature;BME280_humidity;BME280_pressure;Samples;Min_cycle;Max_cycle;Signal;HPM_P1;HPM_P2
2022/04/14 00:02:07;;;;;;;;;6.00;5.00;;;;;16.70;62.98;101306.03;4804025;29;45635;-76
2022/04/14 00:04:35;;;;;;;;;5.50;5.00;;;;;16.68;62.88;101305.31;4804583;29;46208;-76
2022/04/14 00:10:22;;;;;;;;;7.25;7.00;;;;;16.75;62.84;101311.75;4807134;29;45708;-78
2022/04/14 00:12:48;;;;;;;;;8.75;5.50;;;;;16.76;62.49;101317.88;4807708;29;45744;-77
2022/04/14 00:15:13;;;;;;;;;6.25;6.25;;;;;16.79;62.46;101323.75;4807455;29;45638;-79
2022/04/14 00:17:39;;;;;;;;;12.25;11.00;;;;;16.79;62.65;101320.25;4807496;29;46343;-77
2022/04/14 00:26:31;;;;;;;;;9.00;8.25;;;;;16.78;62.73;101318.59;4807108;29;45812;-77
2022/04/14 00:28:56;;;;;;;;;9.25;8.50;;;;;16.75;62.85;101309.09;4807282;29;45645;-78
2022/04/14 00:31:22;;;;;;;;;8.25;6.75;;;;;16.76;62.88;101312.59;4807284;29;45821;-77
2022/04/14 00:33:47;;;;;;;;;9.50;9.25;;;;;16.76;62.73;101313.44;4807775;29;45672;-77
2022/04/14 00:36:13;;;;;;;;;11.00;11.00;;;;;16.78;62.96;101314.16;4807119;29;47427;-79
2022/04/14 00:38:38;;;;;;;;;9.25;8.75;;;;;16.74;62.69;101312.72;4807267;29;45635;-78
2022/04/14 00:41:03;;;;;;;;;11.00;10.00;;;;;16.77;63.32;101315.13;4807292;29;45710;-77
2022/04/14 00:43:33;;;;;;;;;12.25;11.50;;;;;16.71;63.23;101313.00;4807264;29;45620;-77
2022/04/14 00:46:00;;;;;;;;;12.00;11.00;;;;;16.70;63.36;101313.97;4806935;29;46644;-77
2022/04/14 00:48:26;;;;;;;;;12.00;11.25;;;;;16.63;63.68;101310.16;4807165;29;46191;-76
2022/04/14 00:50:51;;;;;;;;;10.75;10.50;;;;;16.60;63.98;101309.59;4806960;29;45660;-77
2022/04/14 00:53:17;;;;;;;;;13.25;11.00;;;;;16.45;64.06;101297.63;4807139;29;45569;-78
2022/04/14 00:55:42;;;;;;;;;13.00;10.00;;;;;16.52;64.45;101309.38;4807197;29;46308;-77
2022/04/14 00:58:08;;;;;;;;;13.25;12.50;;;;;16.47;64.65;101312.38;4807009;29;46556;-76
2022/04/14 01:00:33;;;;;;;;;12.00;11.25;;;;;16.36;64.17;101304.53;4806763;29;45519;-76
2022/04/14 01:03:00;;;;;;;;;14.75;13.75;;;;;16.40;64.61;101321.00;4807377;29;45839;-76
2022/04/14 01:05:26;;;;;;;;;13.50;12.50;;;;;16.35;64.31;101316.94;4807191;29;45927;-78
2022/04/14 01:11:14;;;;;;;;;10.25;9.50;;;;;16.30;64.61;101313.00;4807381;29;45720;-74
2022/04/14 01:13:40;;;;;;;;;13.75;11.75;;;;;16.29;64.80;101320.09;4807506;29;45441;-76
2022/04/14 01:16:06;;;;;;;;;14.25;12.00;;;;;16.19;65.07;101303.31;4806818;29;45592;-76
2022/04/14 01:18:31;;;;;;;;;11.25;11.00;;;;;16.16;65.26;101303.56;4806134;29;45724;-76
2022/04/14 01:20:56;;;;;;;;;14.50;12.75;;;;;16.10;64.96;101298.78;4806721;29;45612;-76
2022/04/14 01:23:43;;;;;;;;;12.25;11.25;;;;;16.16;64.74;101316.78;4806674;29;45535;-75
2022/04/14 01:26:10;;;;;;;;;11.50;9.00;;;;;16.16;64.77;101323.88;4806343;29;47252;-76
2022/04/14 01:28:35;;;;;;;;;13.50;11.50;;;;;16.16;64.81;101324.69;4806379;29;45569;-75
2022/04/14 01:31:01;;;;;;;;;13.50;13.50;;;;;16.11;64.74;101304.91;4806807;29;45657;-77
2022/04/14 01:33:26;;;;;;;;;14.75;12.50;;;;;16.19;64.80;101318.34;4806798;29;45631;-77
2022/04/14 01:35:52;;;;;;;;;11.75;10.75;;;;;16.17;64.88;101317.63;4789919;29;46837;-75
2022/04/14 01:41:40;;;;;;;;;11.50;11.50;;;;;16.15;65.12;101325.66;4806292;29;45604;-75
2022/04/14 01:44:05;;;;;;;;;10.00;9.00;;;;;16.06;65.54;101313.22;4806668;29;45774;-75
2022/04/14 01:46:31;;;;;;;;;12.25;10.25;;;;;15.96;65.40;101301.72;4806178;29;46175;-79
2022/04/14 01:48:59;;;;;;;;;13.50;11.75;;;;;15.98;65.29;101305.06;4806027;29;46719;-75
2022/04/14 01:51:25;;;;;;;;;9.50;9.00;;;;;16.07;65.42;101308.78;4806441;29;45884;-75
2022/04/14 01:53:50;;;;;;;;;13.00;11.75;;;;;16.06;65.39;101317.66;4806372;29;45634;-79
2022/04/14 01:56:17;;;;;;;;;14.00;11.75;;;;;16.05;65.14;101313.34;4806147;29;46320;-77
2022/04/14 01:58:43;;;;;;;;;11.75;9.25;;;;;16.06;65.15;101317.66;4805988;29;46558;-77
2022/04/14 02:01:09;;;;;;;;;10.25;10.00;;;;;16.05;65.12;101316.81;4806184;29;45546;-78
2022/04/14 02:03:34;;;;;;;;;12.00;10.50;;;;;16.02;65.21;101318.88;4806205;29;45547;-77
2022/04/14 02:05:59;;;;;;;;;9.00;9.00;;;;;16.11;65.07;101318.13;4806077;29;46454;-77
2022/04/14 02:11:46;;;;;;;;;9.25;9.25;;;;;16.11;65.01;101310.19;4805981;29;45711;-76
2022/04/14 02:14:11;;;;;;;;;10.00;9.50;;;;;16.08;65.15;101305.16;4806052;29;45633;-77
2022/04/14 02:16:37;;;;;;;;;12.25;11.25;;;;;16.11;64.95;101311.03;4806015;29;47046;-77
2022/04/14 02:19:02;;;;;;;;;13.00;10.25;;;;;16.11;64.99;101311.03;4805544;29;45626;-77
2022/04/14 02:21:27;;;;;;;;;10.00;9.25;;;;;16.13;65.11;101311.75;4806060;29;45489;-75
2022/04/14 02:27:14;;;;;;;;;13.00;10.00;;;;;16.11;64.79;101308.38;4805512;29;45583;-75
2022/04/14 02:29:40;;;;;;;;;10.75;10.75;;;;;16.14;65.15;101302.03;4805130;29;45641;-77
2022/04/14 02:32:06;;;;;;;;;11.50;8.75;;;;;16.14;65.16;101310.75;4805588;29;45558;-78
2022/04/14 02:34:31;;;;;;;;;10.75;8.75;;;;;16.10;65.60;101297.94;4805850;29;45562;-77
2022/04/14 02:36:57;;;;;;;;;11.75;10.00;;;;;16.12;65.40;101304.78;4805412;29;45572;-76
2022/04/14 02:39:22;;;;;;;;;15.00;12.25;;;;;16.10;65.67;101308.50;4805395;29;45648;-77
2022/04/14 02:41:47;;;;;;;;;16.00;12.75;;;;;16.08;65.67;101316.59;4805309;29;45517;-76
2022/04/14 02:44:13;;;;;;;;;12.50;8.75;;;;;16.04;65.72;101312.50;4805528;29;45614;-78
2022/04/14 02:46:38;;;;;;;;;13.00;11.00;;;;;15.99;65.74;101306.75;4805784;29;45497;-78
2022/04/14 02:49:04;;;;;;;;;14.75;11.00;;;;;15.95;65.96;101319.38;4805292;29;46199;-76
2022/04/14 02:51:29;;;;;;;;;15.00;14.00;;;;;15.90;65.58;101312.81;4805852;29;45903;-77
2022/04/14 02:57:16;;;;;;;;;11.00;8.25;;;;;15.86;65.74;101316.66;4805089;29;45966;-76
2022/04/14 02:59:41;;;;;;;;;12.50;12.00;;;;;15.81;65.78;101300.34;4805297;29;46030;-77
2022/04/14 03:02:07;;;;;;;;;11.25;9.25;;;;;15.84;65.79;101311.50;4804874;29;45608;-76
2022/04/14 03:04:32;;;;;;;;;14.50;13.75;;;;;15.84;65.84;101308.84;4805609;29;45626;-79
2022/04/14 03:06:57;;;;;;;;;13.50;11.25;;;;;15.74;65.63;101301.81;4805426;29;45527;-76
2022/04/14 03:12:50;;;;;;;;;15.25;14.25;;;;;15.85;65.44;101310.53;4805066;29;45629;-77
2022/04/14 03:15:16;;;;;;;;;12.50;10.50;;;;;15.86;65.44;101312.22;4805436;29;45596;-77
2022/04/14 03:17:42;;;;;;;;;14.25;12.25;;;;;15.87;65.23;101313.06;4805224;29;46399;-76
2022/04/14 03:20:08;;;;;;;;;14.75;13.00;;;;;15.83;65.53;101308.97;4804934;29;46698;-75
2022/04/14 03:22:35;;;;;;;;;17.25;13.25;;;;;15.88;66.04;101318.22;4806289;29;45651;-75
2022/04/14 03:25:06;;;;;;;;;15.00;12.00;;;;;15.83;66.12;101322.19;4805639;29;45708;-75
2022/04/14 03:27:31;;;;;;;;;15.75;13.25;;;;;15.77;66.13;101315.59;4805230;29;46579;-77
2022/04/14 03:29:57;;;;;;;;;15.25;13.00;;;;;15.73;65.91;101314.19;4804733;29;46039;-75
2022/04/14 03:32:24;;;;;;;;;12.25;11.75;;;;;15.57;66.29;101289.13;4805018;29;45646;-76
2022/04/14 03:34:50;;;;;;;;;12.50;12.50;;;;;15.75;66.35;101327.28;4804882;29;45734;-77
2022/04/14 03:37:15;;;;;;;;;13.00;11.75;;;;;15.58;66.14;101307.50;4804728;29;46382;-76
2022/04/14 03:43:02;;;;;;;;;12.00;12.00;;;;;15.66;65.95;101320.91;4810522;29;45727;-75
2022/04/14 03:45:27;;;;;;;;;12.00;10.75;;;;;15.59;66.14;101308.34;4811129;29;45572;-79
2022/04/14 03:47:53;;;;;;;;;13.00;13.00;;;;;15.53;66.09;101304.41;4810835;29;46481;-76
2022/04/14 03:50:18;;;;;;;;;14.00;13.00;;;;;15.63;66.53;101334.38;4810864;29;45716;-77
2022/04/14 03:52:43;;;;;;;;;12.50;10.75;;;;;15.62;66.56;101337.97;4810825;29;45608;-78
2022/04/14 03:55:09;;;;;;;;;12.50;11.50;;;;;15.62;66.84;101340.63;4810976;29;45777;-77
2022/04/14 03:57:34;;;;;;;;;11.75;10.75;;;;;15.59;66.76;101345.31;4810048;29;45566;-78
2022/04/14 03:59:59;;;;;;;;;12.75;11.25;;;;;15.55;67.02;101343.91;4810666;29;45610;-77
2022/04/14 04:02:25;;;;;;;;;12.75;11.00;;;;;15.50;67.38;101346.84;4810539;29;45702;-78
2022/04/14 04:04:50;;;;;;;;;10.50;9.00;;;;;15.33;67.17;101327.06;4810811;29;45593;-77
2022/04/14 04:07:15;;;;;;;;;13.25;13.00;;;;;15.45;67.01;101347.22;4810833;29;46202;-78
2022/04/14 04:13:02;;;;;;;;;12.75;12.25;;;;;15.40;67.50;101345.91;4810664;29;45597;-77
2022/04/14 04:15:28;;;;;;;;;13.00;12.50;;;;;15.38;67.07;101339.94;4810655;29;45874;-77
2022/04/14 04:17:53;;;;;;;;;16.50;13.00;;;;;15.29;67.10;101319.50;4810474;29;45634;-77
2022/04/14 04:20:20;;;;;;;;;15.00;14.00;;;;;15.35;67.06;101322.50;4810302;29;46088;-76
2022/04/14 04:22:46;;;;;;;;;12.25;11.75;;;;;15.40;67.12;101319.50;4810572;29;45680;-76
2022/04/14 04:28:32;;;;;;;;;12.75;12.75;;;;;15.41;66.76;101322.03;4810133;29;45681;-77
2022/04/14 04:30:58;;;;;;;;;12.75;10.00;;;;;15.44;67.21;101324.41;4811225;29;45848;-79
2022/04/14 04:33:23;;;;;;;;;14.50;13.00;;;;;15.45;67.10;101328.72;4811678;29;45523;-77
2022/04/14 04:35:52;;;;;;;;;13.00;13.00;;;;;15.43;66.86;101324.56;4810490;29;45668;-77
2022/04/14 04:38:17;;;;;;;;;15.50;14.50;;;;;15.46;67.15;101340.13;4810382;29;46745;-80
2022/04/14 04:40:43;;;;;;;;;14.25;13.25;;;;;15.48;67.77;101354.91;4810563;29;46006;-77
2022/04/14 04:43:09;;;;;;;;;15.50;13.50;;;;;15.46;67.93;101345.41;4810627;29;45651;-77
2022/04/14 04:45:35;;;;;;;;;15.00;13.50;;;;;15.40;67.71;101359.94;4810600;29;45593;-77
2022/04/14 04:48:02;;;;;;;;;14.50;13.00;;;;;15.37;67.62;101362.00;4810148;29;45585;-78
2022/04/14 04:50:28;;;;;;;;;13.25;12.75;;;;;15.32;67.87;101370.28;4809869;29;47013;-77
2022/04/14 04:52:53;;;;;;;;;15.50;15.00;;;;;15.02;68.03;101331.28;4807617;29;45580;-75
2022/04/14 04:58:40;;;;;;;;;16.00;14.50;;;;;15.14;68.16;101377.00;4806701;29;45594;-77
2022/04/14 05:01:06;;;;;;;;;21.25;16.50;;;;;15.09;68.57;101373.88;4806742;29;46200;-78
2022/04/14 05:03:31;;;;;;;;;19.25;19.00;;;;;14.98;68.71;101366.78;4806941;29;45658;-77
2022/04/14 05:05:57;;;;;;;;;19.25;18.75;;;;;14.90;68.57;101357.81;4806900;29;45572;-77
2022/04/14 05:08:22;;;;;;;;;19.75;19.00;;;;;14.88;68.83;101357.91;4806592;29;46626;-77
2022/04/14 05:14:09;;;;;;;;;18.50;17.75;;;;;14.83;68.66;101362.72;4806634;29;45622;-77
2022/04/14 05:16:35;;;;;;;;;19.00;17.75;;;;;14.83;68.50;101365.34;4807012;29;45704;-79
2022/04/14 05:19:01;;;;;;;;;25.00;20.75;;;;;14.80;68.73;101355.00;4806587;29;45615;-77
2022/04/14 05:21:26;;;;;;;;;19.25;18.25;;;;;14.80;68.57;101359.44;4806631;29;46240;-78
2022/04/14 05:23:52;;;;;;;;;18.00;17.50;;;;;14.79;68.35;101360.44;4806437;29;45574;-77
2022/04/14 05:26:17;;;;;;;;;19.50;18.50;;;;;14.86;68.53;101374.81;4806653;29;45719;-77
2022/04/14 05:28:43;;;;;;;;;20.25;18.50;;;;;14.87;68.49;101381.78;4806709;29;45660;-79
2022/04/14 05:31:08;;;;;;;;;18.50;17.25;;;;;14.89;68.62;101374.59;4808474;29;45594;-77
2022/04/14 05:33:34;;;;;;;;;18.50;17.00;;;;;14.79;68.72;101363.06;4807563;29;45557;-77
2022/04/14 05:35:59;;;;;;;;;24.00;19.50;;;;;14.91;68.35;101376.13;4807245;29;45671;-77
2022/04/14 05:38:24;;;;;;;;;22.75;22.25;;;;;14.82;68.60;101365.44;4806698;29;45477;-76
2022/04/14 05:44:11;;;;;;;;;22.50;21.50;;;;;14.90;68.60;101381.56;4806915;29;45834;-76
2022/04/14 05:46:36;;;;;;;;;23.00;21.50;;;;;14.96;69.01;101388.97;4807797;29;45621;-75
2022/04/14 05:49:02;;;;;;;;;20.50;16.75;;;;;14.93;68.93;101392.69;4806403;29;45669;-76
2022/04/14 05:51:28;;;;;;;;;18.25;16.00;;;;;14.92;68.92;101392.81;4806928;29;46373;-77
2022/04/14 05:53:53;;;;;;;;;21.50;20.50;;;;;14.89;68.87;101387.78;4807295;29;45582;-75
2022/04/14 05:59:41;;;;;;;;;22.75;18.50;;;;;14.87;68.69;101393.16;4809036;29;46169;-78
2022/04/14 06:02:07;;;;;;;;;22.50;20.75;;;;;14.88;68.42;101386.94;4807190;29;45588;-75
2022/04/14 06:04:32;;;;;;;;;21.25;18.25;;;;;14.93;68.95;101403.25;4806157;29;45510;-74
2022/04/14 06:06:58;;;;;;;;;20.50;20.25;;;;;14.96;68.80;101396.88;4807383;29;45507;-76
2022/04/14 06:09:23;;;;;;;;;22.00;19.25;;;;;14.98;68.54;101398.47;4807204;29;46150;-76
2022/04/14 06:11:49;;;;;;;;;22.00;20.00;;;;;15.03;68.27;101393.66;4807493;29;45984;-74
2022/04/14 06:14:14;;;;;;;;;21.75;21.00;;;;;14.96;68.03;101376.63;4808473;29;45683;-77
2022/04/14 06:16:39;;;;;;;;;20.50;20.00;;;;;15.08;68.46;101396.78;4812036;29;45529;-77
2022/04/14 06:19:05;;;;;;;;;22.00;20.75;;;;;15.16;67.95;101408.56;4813760;29;46355;-77
2022/04/14 06:21:30;;;;;;;;;34.25;30.50;;;;;15.20;68.26;101399.44;4820771;29;45541;-80
2022/04/14 06:23:56;;;;;;;;;36.25;33.00;;;;;15.24;67.89;101400.88;4819100;29;45339;-78
2022/04/14 06:29:43;;;;;;;;;22.25;20.75;;;;;14.92;68.29;101362.00;4809530;29;45668;-79
2022/04/14 06:32:09;;;;;;;;;27.75;23.00;;;;;15.28;68.38;101426.06;4805661;29;45683;-78
2022/04/14 06:34:34;;;;;;;;;25.00;24.00;;;;;15.20;68.43;101421.41;4805710;29;45567;-79
2022/04/14 06:37:00;;;;;;;;;24.00;22.00;;;;;15.21;68.81;101431.00;4805891;29;45507;-77
2022/04/14 06:39:25;;;;;;;;;24.25;23.25;;;;;15.00;68.50;101409.75;4805251;29;45555;-79
2022/04/14 06:41:50;;;;;;;;;28.75;24.75;;;;;15.12;68.74;101437.81;4805530;29;46001;-78
2022/04/14 06:44:16;;;;;;;;;25.00;24.00;;;;;15.05;68.90;101441.06;4805694;29;45735;-77
2022/04/14 06:46:42;;;;;;;;;32.75;28.25;;;;;15.08;68.81;101449.59;4793020;29;45541;-78
2022/04/14 06:49:07;;;;;;;;;29.75;28.00;;;;;14.94;68.61;101422.56;4807223;29;45659;-80
2022/04/14 06:51:33;;;;;;;;;31.00;26.50;;;;;15.11;68.76;101446.69;4807466;29;45500;-80
2022/04/14 06:53:59;;;;;;;;;35.00;31.00;;;;;15.00;68.57;101411.56;4807271;29;45513;-79
2022/04/14 06:59:46;;;;;;;;;29.75;27.50;;;;;15.10;68.56;101418.66;4807090;29;45499;-79
2022/04/14 07:02:12;;;;;;;;;28.00;26.50;;;;;15.18;68.50;101419.81;4805332;29;46020;-80
2022/04/14 07:04:37;;;;;;;;;33.75;31.50;;;;;15.25;68.42;101429.81;4805063;29;45529;-79
2022/04/14 07:07:03;;;;;;;;;29.00;28.00;;;;;15.22;68.33;101416.03;4805258;29;45930;-79
2022/04/14 07:09:32;;;;;;;;;26.25;24.00;;;;;15.45;68.37;101450.22;4804896;29;46261;-80
2022/04/14 07:15:19;;;;;;;;;33.50;29.00;;;;;15.49;68.06;101449.00;4804148;29;45874;-79
2022/04/14 07:17:44;;;;;;;;;30.25;29.25;;;;;15.52;68.20;101453.25;4806176;29;45497;-78
2022/04/14 07:20:10;;;;;;;;;34.75;30.25;;;;;15.42;68.34;101433.78;4789031;29;48550;-79
2022/04/14 07:22:52;;;;;;;;;30.25;29.25;;;;;15.58;68.01;101460.72;4805308;29;45730;-79
2022/04/14 07:25:17;;;;;;;;;25.75;24.75;;;;;15.45;67.84;101429.09;4805384;29;45922;-79
2022/04/14 07:27:43;;;;;;;;;30.00;27.50;;;;;15.62;67.86;101462.13;4805597;29;45514;-79
2022/04/14 07:30:10;;;;;;;;;29.75;27.75;;;;;15.65;67.84;101453.16;4805319;29;46407;-80
2022/04/14 07:32:38;;;;;;;;;30.25;28.00;;;;;15.62;67.85;101446.28;4805580;29;46166;-79
2022/04/14 07:35:04;;;;;;;;;31.75;30.50;;;;;15.56;67.62;101440.63;4805227;29;45620;-79
2022/04/14 07:37:31;;;;;;;;;30.25;27.25;;;;;15.65;67.72;101461.06;4805439;29;45698;-78
2022/04/14 07:39:56;;;;;;;;;33.25;29.25;;;;;15.67;67.62;101462.63;4805228;29;47302;-79
2022/04/14 07:42:21;;;;;;;;;32.50;29.00;;;;;15.70;67.69;101458.91;4805701;29;46203;-78
2022/04/14 07:44:47;;;;;;;;;36.00;32.00;;;;;15.70;67.43;101457.09;4805586;29;46134;-79
2022/04/14 07:47:13;;;;;;;;;33.50;29.25;;;;;15.70;67.40;101456.25;4805279;29;45860;-79
2022/04/14 07:49:39;;;;;;;;;31.00;28.75;;;;;15.78;67.53;101467.06;4805154;29;45583;-79
2022/04/14 07:52:04;;;;;;;;;31.00;29.00;;;;;15.72;67.25;101457.81;4804805;29;46112;-80
2022/04/14 07:54:30;;;;;;;;;36.00;33.00;;;;;15.81;67.48;101467.66;4804983;29;45666;-79
2022/04/14 08:00:18;;;;;;;;;38.25;32.25;;;;;15.76;67.70;101455.78;4804335;29;45554;-77
2022/04/14 08:02:54;;;;;;;;;36.50;33.25;;;;;15.87;67.09;101469.78;4804611;29;46066;-79
2022/04/14 08:05:28;;;;;;;;;34.75;31.50;;;;;15.88;67.19;101466.19;4804380;29;45679;-78
2022/04/14 08:07:53;;;;;;;;;38.75;35.50;;;;;15.92;67.11;101472.91;4804309;29;45542;-79
2022/04/14 08:10:19;;;;;;;;;38.50;33.25;;;;;15.92;67.17;101464.97;4804571;29;45526;-79
2022/04/14 08:12:44;;;;;;;;;40.25;34.50;;;;;15.84;67.03;101446.28;4804497;29;46283;-78
2022/04/14 08:15:14;;;;;;;;;36.25;33.50;;;;;15.91;66.83;101457.19;4804113;29;45589;-79
2022/04/14 08:17:43;;;;;;;;;40.25;34.00;;;;;16.07;66.94;101467.38;4804750;29;45593;-79
2022/04/14 08:20:11;;;;;;;;;41.00;35.25;;;;;16.10;66.64;101470.63;4804272;29;46859;-79
2022/04/14 08:22:50;;;;;;;;;45.25;35.75;;;;;16.02;66.48;101449.25;4804254;29;46857;-79
2022/04/14 08:25:35;;;;;;;;;44.00;37.00;;;;;16.05;66.65;101450.78;4804617;29;45683;-80
2022/04/14 08:28:02;;;;;;;;;45.50;36.50;;;;;16.06;66.63;101450.69;4793502;29;45465;-79
2022/04/14 08:30:31;;;;;;;;;46.25;38.00;;;;;16.26;66.39;101478.16;4807263;29;46798;-79
2022/04/14 08:32:59;;;;;;;;;40.25;34.25;;;;;16.26;66.31;101475.50;4807212;29;47014;-79
2022/04/14 08:35:26;;;;;;;;;39.75;33.75;;;;;16.23;65.76;101467.81;4807154;29;45635;-79
2022/04/14 08:37:51;;;;;;;;;0.00;0.00;;;;;16.35;65.73;101478.25;4790975;29;45972;-79
2022/04/14 08:40:21;;;;;;;;;36.00;33.25;;;;;16.40;65.40;101477.03;4807404;29;46314;-79
2022/04/14 08:42:57;;;;;;;;;40.25;35.25;;;;;16.43;65.56;101477.63;4807636;29;46150;-79
2022/04/14 08:45:23;;;;;;;;;40.50;35.50;;;;;16.47;65.43;101479.03;4806960;29;45863;-80
2022/04/14 08:47:53;;;;;;;;;38.75;35.00;;;;;16.52;65.07;101478.69;4790453;29;45647;-79
2022/04/14 08:50:18;;;;;;;;;34.50;33.00;;;;;16.54;64.85;101476.75;4807164;29;45672;-78
2022/04/14 08:52:44;;;;;;;;;36.75;32.00;;;;;16.54;64.39;101469.66;4807211;29;46032;-80
2022/04/14 08:55:14;;;;;;;;;35.25;33.00;;;;;16.59;64.15;101475.44;4807177;29;45563;-79
2022/04/14 09:01:01;;;;;;;;;35.00;31.75;;;;;16.60;63.87;101473.63;4806756;29;46095;-78
2022/04/14 09:03:28;;;;;;;;;38.00;34.00;;;;;16.70;64.08;101485.97;4807142;29;45667;-78
2022/04/14 09:05:55;;;;;;;;;33.25;32.25;;;;;16.71;64.07;101473.56;4807298;29;45714;-79
2022/04/14 09:08:22;;;;;;;;;31.00;31.00;;;;;16.69;63.25;101476.34;4807575;29;45492;-78
2022/04/14 09:10:49;;;;;;;;;30.50;28.25;;;;;16.79;63.30;101473.75;4807621;29;45918;-79
2022/04/14 09:13:14;;;;;;;;;33.50;30.75;;;;;16.83;63.16;101483.16;4807026;29;45497;-78
2022/04/14 09:15:40;;;;;;;;;27.25;26.75;;;;;16.83;62.55;101480.50;4807314;29;45717;-79
2022/04/14 09:18:07;;;;;;;;;24.75;24.00;;;;;16.90;62.50;101484.31;4807044;29;45570;-79
2022/04/14 09:20:36;;;;;;;;;31.50;27.75;;;;;16.94;62.35;101479.59;4806888;29;46437;-79
2022/04/14 09:23:20;;;;;;;;;34.50;29.75;;;;;16.96;62.07;101481.16;4806716;29;45505;-77
2022/04/14 09:25:50;;;;;;;;;30.50;28.75;;;;;16.96;62.05;101477.66;4806621;29;45883;-79
2022/04/14 09:28:18;;;;;;;;;29.75;28.00;;;;;16.98;62.26;101478.38;4806637;29;45803;-80
2022/04/14 09:31:04;;;;;;;;;29.25;28.25;;;;;17.08;61.83;101488.06;4806235;29;47672;-78
2022/04/14 09:33:31;;;;;;;;;26.50;25.00;;;;;17.08;61.54;101476.63;4806565;29;46101;-77
2022/04/14 09:36:13;;;;;;;;;27.25;22.00;;;;;17.01;61.56;101463.06;4806235;29;45849;-79
2022/04/14 09:39:01;;;;;;;;;24.25;22.75;;;;;17.23;61.16;101487.72;4805541;29;45611;-80
2022/04/14 09:41:37;;;;;;;;;28.50;25.00;;;;;17.11;61.09;101461.31;4806206;29;46895;-78
2022/04/14 09:44:11;;;;;;;;;28.50;25.00;;;;;17.29;61.10;101479.25;4789723;29;47124;-79
2022/04/14 09:46:42;;;;;;;;;28.50;26.50;;;;;17.35;61.25;101476.94;4806352;29;45600;-79
2022/04/14 09:49:11;;;;;;;;;26.25;23.75;;;;;17.38;60.48;101466.06;4806252;29;45779;-78
2022/04/14 09:51:41;;;;;;;;;29.00;24.25;;;;;17.46;60.28;101476.00;4806432;29;45578;-81
2022/04/14 09:54:13;;;;;;;;;27.00;24.00;;;;;17.50;60.38;101475.59;4806504;29;46115;-79
2022/04/14 09:56:48;;;;;;;;;24.50;23.75;;;;;17.54;60.45;101476.19;4806427;29;45584;-79
2022/04/14 09:59:28;;;;;;;;;22.25;20.00;;;;;17.56;60.50;101472.44;4806256;29;45578;-80
2022/04/14 10:02:17;;;;;;;;;22.00;20.75;;;;;17.63;59.31;101486.03;4805927;29;45559;-78
2022/04/14 10:04:44;;;;;;;;;22.75;20.50;;;;;17.58;59.24;101469.66;4806080;29;45631;-79
2022/04/14 10:07:17;;;;;;;;;18.50;16.00;;;;;17.66;58.82;101467.19;4806311;29;45549;-79
2022/04/14 10:09:45;;;;;;;;;17.25;15.25;;;;;17.71;59.03;101475.59;4806217;29;45632;-78
2022/04/14 10:12:19;;;;;;;;;17.00;15.00;;;;;17.79;58.73;101488.19;4806029;29;45663;-79
2022/04/14 10:14:58;;;;;;;;;14.00;12.75;;;;;17.84;58.02;101481.50;4806342;29;46219;-78
2022/04/14 10:17:28;;;;;;;;;14.75;14.00;;;;;17.89;58.00;101481.09;4806201;29;45794;-78
2022/04/14 10:19:54;;;;;;;;;16.75;13.75;;;;;17.70;57.79;101436.81;4806214;29;45565;-78
2022/04/14 10:22:20;;;;;;;;;15.00;14.25;;;;;17.90;57.12;101467.72;4806157;29;45706;-77
2022/04/14 10:24:46;;;;;;;;;17.75;17.50;;;;;17.88;56.83;101458.19;4805822;29;45548;-79
2022/04/14 10:27:14;;;;;;;;;16.75;14.25;;;;;18.02;57.41;101479.91;4805993;29;45612;-78
2022/04/14 10:29:41;;;;;;;;;14.00;12.50;;;;;18.07;56.81;101460.09;4806071;29;45824;-79
2022/04/14 10:32:07;;;;;;;;;17.25;14.75;;;;;18.04;57.13;101451.41;4805868;29;46687;-80
2022/04/14 10:34:33;;;;;;;;;19.25;16.50;;;;;18.15;56.97;101463.72;4805832;29;46163;-80
2022/04/14 10:37:02;;;;;;;;;15.25;14.00;;;;;18.17;56.69;101447.66;4805806;29;45681;-80
2022/04/14 10:39:31;;;;;;;;;15.50;14.25;;;;;18.25;56.56;101450.47;4805747;29;45564;-79
2022/04/14 10:42:00;;;;;;;;;13.75;13.00;;;;;18.19;56.53;101432.47;4805694;29;46718;-79
2022/04/14 10:44:46;;;;;;;;;16.25;13.25;;;;;18.41;56.07;101454.25;4805548;29;45633;-78
2022/04/14 10:47:13;;;;;;;;;14.50;13.25;;;;;18.48;55.75;101456.34;4805670;29;45584;-78
2022/04/14 10:49:41;;;;;;;;;15.50;15.50;;;;;18.51;55.82;101453.44;4805759;29;45657;-79
2022/04/14 10:52:24;;;;;;;;;15.50;15.00;;;;;18.55;55.06;101450.38;4805589;29;46371;-78
2022/04/14 10:55:00;;;;;;;;;16.50;16.25;;;;;18.58;54.85;101452.75;4805762;29;46017;-79
2022/04/14 10:57:38;;;;;;;;;15.75;14.75;;;;;18.64;55.32;101454.00;4805528;29;45824;-79
2022/04/14 11:00:19;;;;;;;;;15.00;15.00;;;;;18.69;55.19;101443.81;4805344;29;45687;-79
2022/04/14 11:03:06;;;;;;;;;15.50;14.25;;;;;18.75;55.32;101452.06;4805213;29;45605;-78
2022/04/14 11:05:42;;;;;;;;;15.50;15.00;;;;;18.82;54.39;101455.81;4805476;29;46220;-80
2022/04/14 11:08:28;;;;;;;;;16.00;15.00;;;;;18.85;53.99;101452.88;4805079;29;45683;-80
2022/04/14 11:11:12;;;;;;;;;13.50;12.25;;;;;18.89;53.98;101457.91;4805422;29;45720;-78
2022/04/14 11:14:07;;;;;;;;;15.50;13.00;;;;;18.92;53.44;101450.50;4805350;29;45613;-79
2022/04/14 11:16:47;;;;;;;;;12.25;12.00;;;;;18.96;53.04;101465.16;4731176;30;46204;-80
2022/04/14 11:19:19;;;;;;;;;13.75;12.75;;;;;19.01;51.71;101465.56;4731145;30;45725;-79
2022/04/14 11:22:02;;;;;;;;;9.75;9.75;;;;;19.05;51.75;101461.66;4731462;30;45725;-79
2022/04/14 11:24:36;;;;;;;;;13.25;11.00;;;;;19.11;51.95;101460.25;4731188;30;45571;-77
2022/04/14 11:30:39;;;;;;;;;13.25;13.00;;;;;19.11;51.54;101433.69;4730883;30;45766;-78
2022/04/14 11:33:12;;;;;;;;;12.25;12.25;;;;;19.33;51.13;101451.09;4730687;30;45812;-79
2022/04/14 11:35:45;;;;;;;;;15.50;12.75;;;;;19.34;51.14;101427.03;4730610;30;45859;-81
2022/04/14 11:38:50;;;;;;;;;14.00;13.00;;;;;19.55;51.59;101448.09;4730458;30;45947;-79
2022/04/14 11:48:00;;;;;;;;;13.25;12.25;;;;;19.69;50.04;101461.78;4730377;30;45701;-78
2022/04/14 11:50:27;;;;;;;;;14.75;14.00;;;;;19.63;50.07;101448.22;4730889;30;45993;-80
2022/04/14 11:52:57;;;;;;;;;13.00;12.75;;;;;19.70;50.33;101449.31;4764728;29;45609;-78
2022/04/14 11:55:39;;;;;;;;;13.25;13.00;;;;;19.71;50.45;101448.31;4805187;29;45846;-79
2022/04/14 11:58:08;;;;;;;;;14.50;11.75;;;;;19.67;50.75;101434.47;4804222;29;46675;-80
2022/04/14 12:00:54;;;;;;;;;11.75;10.75;;;;;19.74;50.33;101453.34;4804039;29;46067;-79
2022/04/14 12:03:32;;;;;;;;;13.75;11.00;;;;;19.74;50.02;101456.00;4807183;29;45761;-79
2022/04/14 12:06:02;;;;;;;;;14.00;12.00;;;;;19.73;49.00;101445.50;4807564;29;45803;-79
2022/04/14 12:08:28;;;;;;;;;10.00;10.00;;;;;19.81;49.30;101446.44;4806981;29;45517;-79
2022/04/14 12:10:54;;;;;;;;;7.75;7.25;;;;;19.83;48.54;101446.28;4807185;29;45532;-79
2022/04/14 12:13:21;;;;;;;;;8.00;7.25;;;;;19.89;48.10;101437.72;4806890;29;45584;-78
2022/04/14 12:16:00;;;;;;;;;5.50;5.50;;;;;20.03;47.57;101445.19;4807267;29;45952;-79
2022/04/14 12:18:26;;;;;;;;;8.00;7.75;;;;;20.11;48.04;101440.81;4806625;29;45737;-79
2022/04/14 12:20:51;;;;;;;;;6.50;5.50;;;;;20.22;47.48;101446.91;4807223;29;46193;-80
2022/04/14 12:23:16;;;;;;;;;5.75;5.50;;;;;20.16;46.52;101418.22;4807287;29;45543;-79
2022/04/14 12:25:42;;;;;;;;;8.25;8.00;;;;;20.30;46.65;101426.50;4807126;29;45815;-79
2022/04/14 12:28:08;;;;;;;;;13.00;8.00;;;;;20.30;46.66;101415.84;4806614;29;46640;-79
2022/04/14 12:30:34;;;;;;;;;8.00;7.50;;;;;20.51;46.04;101455.53;4807023;29;45725;-79
2022/04/14 12:33:04;;;;;;;;;7.25;6.00;;;;;20.52;46.04;101450.03;4806572;29;45861;-79
2022/04/14 12:35:37;;;;;;;;;7.00;6.50;;;;;20.45;45.83;101440.19;4807142;29;45735;-80
2022/04/14 12:38:19;;;;;;;;;7.00;6.25;;;;;20.44;45.58;101433.16;4806456;29;46463;-81